Greenfield, IN (46140)

2:45 AM EDT on September 01, 2016 (GMT -0400)
Copeland Farms | | Change Station

Elev 899 ft 39.81 °N, 85.79 °W | Updated 43 seconds ago

Mostly Cloudy
Mostly Cloudy
65.5 °F
Feels Like 65.5 °F
N
5.3
Wind Variable Wind from WNW

Today
High -- | Low -- °F
--% Chance of Precip.
Yesterday
High -- | Low -- °F
Precip. -- in
Pressure 30.03 in
Visibility 10.0 miles
Clouds Scattered Clouds 3200 ft
Mostly Cloudy 4000 ft
Mostly Cloudy 5000 ft
Dew Point 57 °F
Humidity 75%
Rainfall 0.00 in
Snow Depth Not available.
7:11 AM 8:13 PM
Waning Crescent, 0% visible
METAR KMQJ 010635Z AUTO 36006KT 10SM SCT032 BKN040 BKN050 18/17 A3003 RMK AO1
Pressure 30.03 in
Visibility 10.0 miles
Clouds Scattered Clouds 3200 ft
Mostly Cloudy 4000 ft
Mostly Cloudy 5000 ft
Dew Point 57 °F
Humidity 75%
Rainfall 0.00 in
Snow Depth Not available.
7:11 AM 8:13 PM
Waning Crescent, 0% visible
METAR KMQJ 010635Z AUTO 36006KT 10SM SCT032 BKN040 BKN050 18/17 A3003 RMK AO1

10-Day Weather Forecast

Almanac

Astronomy

Sep. 01, 2016 Rise Set
Actual Time
Civil Twilight
Nautical Twilight
Astronomical Twilight
Moon
Length of Visible Light
Length of Day
Tomorrow will be .
, % of the Moon is Illuminated

Today's Extremes

State Highs State Lows

Community

WunderPhotos

Upload Photos

1,936,315 photos uploaded!

WunderBlog® & News

Nearby

Air Quality

  Air Quality AQ Index Pollutant
Not available.

Snow Depth

Station Depth Elevation

Earthquake Activity

City Distance Mag. Time & Date
Minimum magnitude displayed is 2.5.

Coastal Water Temperatures

Place Temperature

Stations

Nearby Weather Stations

Station Location Temp. Windchill Dew Point Humidity Wind Precip. Elev Updated Type
                   

Watches & Warnings

There are currently no watches in effect.